Time;durP1;ratioP1;P1;durP2;ratioP2;P2;SDS_P1;SDS_P2;PMS_P1;PMS_P2;Temp;Humidity;BMP_temperature;BMP_pressure;BME280_temperature;BME280_humidity;BME280_pressure;Samples;Min_cycle;Max_cycle;Signal;HPM_P1;HPM_P2
2022/12/07 00:05:02;;;;;;;50.65;17.27;;;2.50;99.90;;;;;;21075132;28;20479;-77
2022/12/07 00:15:03;;;;;;;40.55;17.38;;;2.60;99.90;;;;;;21074782;28;20036;-77
2022/12/07 00:25:04;;;;;;;42.10;17.48;;;2.70;99.90;;;;;;21074661;28;20047;-77
2022/12/07 00:35:05;;;;;;;43.30;17.85;;;2.60;99.90;;;;;;21074111;28;20028;-77
2022/12/07 00:45:06;;;;;;;41.17;16.75;;;2.70;99.90;;;;;;21090621;28;20047;-78
2022/12/07 00:55:08;;;;;;;45.83;16.90;;;2.70;99.90;;;;;;21090757;28;20375;-77
2022/12/07 01:05:08;;;;;;;45.65;17.20;;;2.60;99.90;;;;;;21089507;28;20020;-77
2022/12/07 01:15:09;;;;;;;40.17;15.02;;;2.70;99.90;;;;;;21088969;28;20077;-77
2022/12/07 01:25:11;;;;;;;44.47;16.90;;;2.70;99.90;;;;;;21070319;28;20020;-77
2022/12/07 01:35:12;;;;;;;40.13;16.48;;;2.70;99.90;;;;;;21088111;28;20513;-78
2022/12/07 01:45:18;;;;;;;37.97;16.30;;;2.80;99.90;;;;;;21087064;28;20421;-77
2022/12/07 01:55:20;;;;;;;43.95;16.98;;;2.80;99.90;;;;;;21084626;28;20052;-77
2022/12/07 02:05:23;;;;;;;44.10;16.77;;;2.80;99.90;;;;;;21014091;28;20063;-77
2022/12/07 02:15:47;;;;;;;44.45;17.00;;;2.80;99.90;;;;;;21078434;28;20027;-77
2022/12/07 02:26:14;;;;;;;40.70;17.55;;;2.70;99.90;;;;;;21031444;28;20044;-76
2022/12/07 02:36:30;;;;;;;44.47;18.17;;;2.80;99.90;;;;;;21082406;28;20054;-77
2022/12/07 02:46:35;;;;;;;49.83;18.00;;;2.80;99.90;;;;;;21064396;28;20078;-77
2022/12/07 02:56:43;;;;;;;42.65;17.23;;;2.80;99.90;;;;;;21063190;28;20040;-76
2022/12/07 03:06:53;;;;;;;45.30;18.23;;;2.90;99.90;;;;;;21080199;28;20039;-77
2022/12/07 03:17:00;;;;;;;50.13;18.75;;;2.90;99.90;;;;;;21079562;28;20172;-77
2022/12/07 03:27:23;;;;;;;44.88;17.50;;;2.90;99.90;;;;;;21078358;28;20445;-77
2022/12/07 03:37:33;;;;;;;37.20;15.95;;;2.90;99.90;;;;;;21064092;28;20038;-77
2022/12/07 03:48:19;;;;;;;54.65;17.70;;;2.80;99.90;;;;;;21077341;28;20487;-76
2022/12/07 03:58:22;;;;;;;44.55;16.77;;;2.80;99.90;;;;;;21058198;28;20028;-77
2022/12/07 04:08:23;;;;;;;49.88;18.38;;;2.80;99.90;;;;;;21075591;28;20042;-77
2022/12/07 04:18:24;;;;;;;41.78;17.45;;;2.80;99.90;;;;;;21074470;28;20431;-77
2022/12/07 04:28:25;;;;;;;46.13;16.85;;;2.80;99.90;;;;;;21056630;28;20118;-76
2022/12/07 04:38:26;;;;;;;46.05;17.85;;;2.90;99.90;;;;;;21074276;28;20031;-77
2022/12/07 04:48:27;;;;;;;57.17;17.88;;;2.80;99.90;;;;;;21031263;28;20178;-76
2022/12/07 04:58:28;;;;;;;40.55;16.20;;;2.80;99.90;;;;;;21027240;28;20071;-77
2022/12/07 05:08:28;;;;;;;39.95;15.68;;;2.90;99.90;;;;;;21072632;28;20078;-77
2022/12/07 05:18:29;;;;;;;33.90;14.75;;;2.80;99.90;;;;;;21071001;28;20445;-77
2022/12/07 05:28:30;;;;;;;33.33;13.38;;;2.80;99.90;;;;;;21083560;28;20032;-77
2022/12/07 05:38:32;;;;;;;27.90;12.90;;;2.80;99.90;;;;;;21067856;28;20032;-76
2022/12/07 05:48:33;;;;;;;29.55;12.95;;;2.80;99.90;;;;;;21084215;28;20111;-76
2022/12/07 06:08:53;;;;;;;31.08;13.52;;;2.80;99.90;;;;;;21028771;28;20044;-76
2022/12/07 06:18:54;;;;;;;31.65;13.90;;;2.90;99.90;;;;;;21000320;28;20391;-77
2022/12/07 06:28:54;;;;;;;28.95;13.52;;;2.90;99.90;;;;;;20999825;28;20059;-75
2022/12/07 06:38:55;;;;;;;23.70;11.45;;;3.00;99.90;;;;;;21026882;28;20028;-75
2022/12/07 06:48:56;;;;;;;30.38;12.80;;;3.10;99.90;;;;;;21027028;28;20035;-76
2022/12/07 06:58:57;;;;;;;30.52;14.27;;;3.10;99.90;;;;;;21019357;28;20031;-76
2022/12/07 07:08:58;;;;;;;27.02;13.25;;;3.00;99.90;;;;;;21094561;28;20107;-76
2022/12/07 07:18:58;;;;;;;34.08;14.93;;;3.00;99.90;;;;;;21119314;28;20042;-77
2022/12/07 07:28:59;;;;;;;33.03;14.70;;;3.00;99.90;;;;;;21118744;28;20028;-77
2022/12/07 07:39:00;;;;;;;36.88;13.70;;;3.10;99.90;;;;;;21117635;28;20094;-76
2022/12/07 07:49:01;;;;;;;32.55;13.40;;;3.20;99.90;;;;;;21116280;28;20039;-77
2022/12/07 07:59:02;;;;;;;29.73;14.20;;;3.30;99.90;;;;;;21079248;28;20479;-77
2022/12/07 08:09:04;;;;;;;32.72;13.27;;;3.30;99.90;;;;;;21075670;28;20122;-77
2022/12/07 08:19:05;;;;;;;28.83;13.15;;;3.40;99.90;;;;;;21074869;28;20060;-77
2022/12/07 08:29:06;;;;;;;33.10;14.60;;;3.40;99.90;;;;;;21073073;28;20035;-77
2022/12/07 08:39:07;;;;;;;29.83;13.35;;;3.40;99.90;;;;;;21061611;28;20036;-77
2022/12/07 08:49:11;;;;;;;27.80;12.88;;;3.50;99.90;;;;;;21073453;28;20119;-77
2022/12/07 08:59:15;;;;;;;30.00;13.23;;;3.60;99.90;;;;;;21077569;28;20166;-77
2022/12/07 09:09:16;;;;;;;29.33;13.48;;;3.80;99.90;;;;;;21071142;28;20044;-77
2022/12/07 09:19:17;;;;;;;29.17;13.02;;;3.80;99.90;;;;;;21088537;28;20467;-77
2022/12/07 09:29:18;;;;;;;38.13;14.55;;;3.80;99.90;;;;;;21087891;28;20028;-77
2022/12/07 09:39:18;;;;;;;31.33;13.95;;;3.70;99.90;;;;;;21087032;28;20063;-77
2022/12/07 09:49:25;;;;;;;34.67;13.45;;;4.00;99.90;;;;;;21086208;28;20386;-77
2022/12/07 09:59:26;;;;;;;35.28;12.07;;;4.20;99.90;;;;;;21085330;28;20401;-77
2022/12/07 10:09:34;;;;;;;32.75;14.18;;;4.20;99.90;;;;;;21083349;28;20039;-76
2022/12/07 10:19:34;;;;;;;26.38;12.30;;;4.20;99.90;;;;;;21056281;28;20032;-77
2022/12/07 10:29:39;;;;;;;;;;;4.40;99.90;;;;;;20998613;28;20036;-76
2022/12/07 10:39:44;;;;;;;25.45;11.27;;;4.60;99.90;;;;;;21030599;28;20436;-76
2022/12/07 10:50:17;;;;;;;25.73;11.95;;;4.80;99.90;;;;;;21081525;28;20057;-76
2022/12/07 11:00:24;;;;;;;25.40;11.07;;;5.00;99.90;;;;;;21080722;28;20032;-76
2022/12/07 11:10:39;;;;;;;28.23;11.00;;;4.90;99.90;;;;;;21079525;28;20105;-76
2022/12/07 11:20:44;;;;;;;16.98;9.75;;;6.50;99.90;;;;;;21060754;28;20399;-76
2022/12/07 11:31:25;;;;;;;20.90;9.75;;;7.30;99.90;;;;;;21078224;28;20035;-76
2022/12/07 11:41:32;;;;;;;17.15;8.50;;;7.60;99.90;;;;;;20957943;28;20131;-76
2022/12/07 11:51:36;;;;;;;16.27;8.82;;;8.10;99.90;;;;;;21075868;28;20032;-75
2022/12/07 12:01:52;;;;;;;15.88;8.70;;;8.00;99.90;;;;;;21056732;28;20028;-76
2022/12/07 12:12:17;;;;;;;18.80;9.68;;;7.60;99.90;;;;;;21071989;28;20047;-76
2022/12/07 12:22:22;;;;;;;31.45;13.02;;;7.50;99.90;;;;;;21074540;28;20042;-76
2022/12/07 12:32:28;;;;;;;20.88;10.65;;;7.50;99.90;;;;;;21073631;28;20055;-76
2022/12/07 12:42:45;;;;;;;17.73;9.15;;;7.00;99.90;;;;;;21073567;28;20039;-77
2022/12/07 12:52:51;;;;;;;13.88;7.30;;;7.30;99.90;;;;;;21073399;28;20082;-77
2022/12/07 13:02:58;;;;;;;13.65;7.43;;;7.40;99.90;;;;;;21072539;28;20503;-77
2022/12/07 13:12:59;;;;;;;15.82;8.05;;;7.60;99.90;;;;;;21072545;28;20551;-76
2022/12/07 13:23:01;;;;;;;11.82;6.88;;;7.80;99.90;;;;;;21072270;28;20064;-77
2022/12/07 13:33:03;;;;;;;13.65;7.40;;;7.70;99.90;;;;;;21071636;28;20081;-77
2022/12/07 13:43:12;;;;;;;12.70;6.80;;;7.00;99.90;;;;;;21071136;28;20030;-76
2022/12/07 13:53:19;;;;;;;14.77;7.72;;;7.50;99.90;;;;;;21085599;28;20051;-77
2022/12/07 14:03:30;;;;;;;16.77;8.35;;;8.30;99.90;;;;;;21085010;28;20513;-76
2022/12/07 14:13:40;;;;;;;13.63;7.75;;;7.70;99.90;;;;;;21083115;28;20047;-76
2022/12/07 14:23:42;;;;;;;12.77;7.15;;;7.40;99.90;;;;;;21065317;28;20402;-76
2022/12/07 14:33:43;;;;;;;;;;;6.90;99.90;;;;;;21083238;28;20090;-76
2022/12/07 14:43:43;;;;;;;21.13;9.35;;;6.60;99.90;;;;;;21080706;28;19912;-77
2022/12/07 14:53:50;;;;;;;16.45;7.85;;;6.40;99.90;;;;;;21063957;28;20031;-77
2022/12/07 15:03:51;;;;;;;18.42;9.05;;;6.50;99.90;;;;;;21079931;28;20038;-77
2022/12/07 15:14:11;;;;;;;24.90;9.77;;;5.90;99.90;;;;;;21079696;28;20060;-76
2022/12/07 15:24:12;;;;;;;20.60;9.73;;;5.30;99.90;;;;;;21058549;28;20294;-77
2022/12/07 15:34:13;;;;;;;24.90;10.30;;;4.80;99.90;;;;;;21085432;28;20548;-76
2022/12/07 15:54:33;;;;;;;25.27;11.27;;;4.50;99.90;;;;;;21075177;28;19908;-76
2022/12/07 16:04:34;;;;;;;27.02;11.88;;;4.40;99.90;;;;;;21073331;28;20043;-77
2022/12/07 16:14:36;;;;;;;24.20;9.82;;;4.30;99.90;;;;;;21072292;28;20483;-76
2022/12/07 16:24:36;;;;;;;27.40;11.65;;;4.20;99.90;;;;;;21074835;28;20451;-76
2022/12/07 16:34:39;;;;;;;23.17;10.65;;;4.00;99.90;;;;;;21074400;28;20048;-76
2022/12/07 16:44:41;;;;;;;22.67;10.27;;;3.90;99.90;;;;;;21062811;28;20052;-76
2022/12/07 16:54:42;;;;;;;29.42;11.80;;;3.80;99.90;;;;;;21053444;28;20053;-76
2022/12/07 17:04:42;;;;;;;21.08;11.07;;;3.80;99.90;;;;;;21049650;28;20082;-77
2022/12/07 17:25:04;;;;;;;34.97;14.75;;;3.70;99.90;;;;;;21084967;28;20039;-76
2022/12/07 17:35:05;;;;;;;32.50;13.82;;;3.60;99.90;;;;;;21094311;28;20032;-76
2022/12/07 17:45:09;;;;;;;26.35;13.13;;;3.70;99.90;;;;;;21069646;28;20510;-76
2022/12/07 17:55:10;;;;;;;27.33;11.48;;;3.40;99.90;;;;;;21086451;28;20486;-77
2022/12/07 18:05:10;;;;;;;31.58;13.90;;;3.40;99.90;;;;;;21085631;28;20035;-77
2022/12/07 18:15:11;;;;;;;26.00;11.75;;;3.40;99.90;;;;;;21085043;28;20028;-77
2022/12/07 18:25:12;;;;;;;22.33;10.68;;;3.40;99.90;;;;;;21084372;28;20062;-77
2022/12/07 18:35:13;;;;;;;23.90;11.13;;;3.50;99.90;;;;;;21083078;28;20032;-77
2022/12/07 18:45:14;;;;;;;;;;;3.40;99.90;;;;;;21065296;28;20036;-77
2022/12/07 18:55:15;;;;;;;24.17;11.23;;;3.40;99.90;;;;;;21081580;28;20397;-76
2022/12/07 19:05:16;;;;;;;28.15;12.20;;;3.40;99.90;;;;;;21062596;28;20032;-77
2022/12/07 19:15:17;;;;;;;22.85;11.90;;;3.30;99.90;;;;;;21080095;28;20028;-77
2022/12/07 19:25:18;;;;;;;28.17;12.43;;;3.10;99.90;;;;;;21061844;28;20093;-77
2022/12/07 19:35:19;;;;;;;31.63;11.50;;;2.90;99.90;;;;;;21078435;28;20032;-77
2022/12/07 19:45:19;;;;;;;27.58;12.98;;;2.80;99.90;;;;;;21078169;28;20024;-76
2022/12/07 19:55:20;;;;;;;28.65;13.48;;;2.30;99.90;;;;;;21077815;28;20108;-76
2022/12/07 20:05:23;;;;;;;33.28;13.27;;;1.70;99.90;;;;;;21069701;28;20491;-77
2022/12/07 20:15:24;;;;;;;32.78;13.52;;;1.60;99.90;;;;;;21057748;28;20035;-77
2022/12/07 20:25:24;;;;;;;37.10;14.45;;;1.50;99.90;;;;;;21061263;28;20024;-76
2022/12/07 20:35:25;;;;;;;31.02;15.00;;;1.50;99.90;;;;;;21079786;28;20020;-77
2022/12/07 20:45:26;;;;;;;30.55;14.55;;;1.40;99.90;;;;;;21063517;28;20046;-76
2022/12/07 20:55:27;;;;;;;36.58;13.45;;;1.80;99.90;;;;;;21084073;28;20028;-77
2022/12/07 21:05:28;;;;;;;24.88;11.00;;;1.60;99.90;;;;;;21090835;28;20136;-77
2022/12/07 21:15:29;;;;;;;20.00;8.95;;;1.30;99.90;;;;;;21090151;28;20032;-77
2022/12/07 21:25:29;;;;;;;21.27;10.07;;;1.20;99.90;;;;;;21070754;28;20082;-77
2022/12/07 21:35:30;;;;;;;23.80;10.88;;;1.10;99.90;;;;;;21088224;28;20032;-76
2022/12/07 21:45:32;;;;;;;19.15;9.93;;;0.90;99.90;;;;;;21090550;28;20020;-77
2022/12/07 21:55:32;;;;;;;24.90;8.88;;;0.70;99.90;;;;;;21080409;28;20056;-77
2022/12/07 22:05:35;;;;;;;19.48;9.25;;;0.50;99.90;;;;;;21083942;28;20039;-77
2022/12/07 22:15:40;;;;;;;22.05;8.88;;;0.30;99.90;;;;;;21084585;28;20032;-77
2022/12/07 22:25:40;;;;;;;23.27;9.13;;;0.20;99.90;;;;;;21065619;28;20402;-77
2022/12/07 22:35:41;;;;;;;26.85;11.43;;;-0.10;99.90;;;;;;21082915;28;20043;-77
2022/12/07 22:45:42;;;;;;;26.23;9.05;;;-0.10;99.90;;;;;;21081980;28;20379;-76
2022/12/07 22:55:43;;;;;;;27.42;11.70;;;-0.40;99.90;;;;;;21063466;28;20090;-77
2022/12/07 23:05:46;;;;;;;27.77;12.18;;;-0.40;99.90;;;;;;21080570;28;20078;-77
2022/12/07 23:15:47;;;;;;;26.23;11.60;;;-0.40;99.90;;;;;;21060954;28;20075;-76
2022/12/07 23:25:48;;;;;;;29.80;10.95;;;-0.40;99.90;;;;;;21078792;28;20031;-76
2022/12/07 23:35:48;;;;;;;26.35;12.35;;;-0.50;99.90;;;;;;21078292;28;20395;-76
2022/12/07 23:45:49;;;;;;;29.15;12.40;;;-0.40;99.90;;;;;;21077791;28;20070;-77
2022/12/07 23:55:50;;;;;;;24.10;12.15;;;-0.40;99.90;;;;;;21077283;28;20036;-76
